Weather


ICAO METAR
KAPA KAPA 031653Z 00000KT 10SM FEW130 SCT200 09/M10 A3006 RMK AO2 SLP168 T00891100
KASE KASE 031653Z 35005KT 10SM CLR 01/M14 A3012 RMK AO2 SLP190 T00111144
KBJC KBJC 031645Z 35003KT 75SM FEW160 10/M12 A3007
KBKF KBKF 031658Z 23007KT 10SM FEW140 FEW220 10/M10 A3006 RMK AO2A SLP163 T01001097
KCFO KCFO 031655Z 18003KT 10SM CLR 12/M07 A3007
KCOS KCOS 031654Z 11005KT 10SM CLR 11/M12 A3009 RMK AO2 SLP167 T01111122
KCPR KCPR 031653Z 22017KT 10SM CLR 08/M10 A3001 RMK AO2 PK WND 22026/1613 SLP156 T00781100
KCYS KCYS 031653Z 15006KT 10SM CLR 11/M14 A3005 RMK AO2 SLP152 T01061139
KDEN KDEN 031653Z 22005KT 10SM FEW150 FEW200 09/M08 A3006 RMK AO2 SLP159 T00941083
KEGE KEGE 031656Z 00000KT 10SM CLR M01/M09 A3021 RMK AO2 SLP270 T10111089 PNO $
KFCS KFCS 031658Z AUTO 08005KT 10SM CLR 11/M12 A3006 RMK AO2 SLP187 T01111117 $
KFMN KFMN 031653Z 10006KT 10SM CLR 06/M09 A3013 RMK AO2 SLP210 T00611094
KFNL KFNL 031656Z 00000KT 10SM CLR 08/M07 A3006 RMK AO2 SLP170 T00831067
KGJT KGJT 031653Z 15009KT 10SM CLR 08/M11 A3011 RMK AO2 SLP189 T00781106
KGUR KGUR 031658Z AUTO 00000KT 10SM CLR 08/M06 A3007 RMK AO2 SLP181 T00831065
KPUB KPUB 031653Z 23005KT 10SM CLR 11/M10 A3006 RMK AO2 SLP164 T01061100
KRAP KRAP 031652Z 00000KT 10SM CLR 13/M07 A2997 RMK AO2 SLP158 T01281067
KRCA KRCA 031656Z AUTO 21003KT 10SM CLR 14/M05 A2996 RMK AO2 SLP156 T01351051 FZRANO $

Surface Data
Click here.

This is a composite map contain the following analyses: radar summary (color filled areas), surface data plot (composite station model), frontal locations (in various bold lines) and pressure contours (in thin blue lines).